Terminal Aerodrome Forecast
Issued by NWS

Home | Current Version | Previous Version | Text Only | Print | Product List | Glossary On
Versions: 1 2 3 4 5 6 7 8 9 10 11 12 13 14 15 16 17 18
000
FTUS44 KSJT 190500
TAFBBD
TAF
KBBD 190534Z 1906/2006 05010KT 6SM BR OVC005
     FM190800 04008KT 4SM -SHRA BR OVC004
     FM191400 03006KT 3SM BR OVC006
     FM191900 02005KT P6SM BKN015
     FM192300 03005KT P6SM SCT025=

USA.gov is the U.S. government's official web portal to all federal, state and local government web resources and services.